Darstellungsparameter: Aktuell verwendete Einstellungen:
Skalierung der Graphiken ... ?
xyx+y,   Skalierungsfaktor:      Skalierung: Modus: x, Faktor: 1
Darstellungszeitraum ... ?
Vom - - bis: - -   Zeitraum: 15.04.2021 - 16.04.2021
Min/Max/Avg-Anzeige ... ?
Zeige MMA aktuell
Zeige MMA Monat
Zeige MMA alles
Zeige --A aktuell
Zeige --A Monat
Zeige --A alles
Keine MMA-Anzeige
MMA:
Minimum Maximum Average (ber die Originaldaten)
MMA-Basis: 15.04.2021 - 16.04.2021
Quicknavigation für Darstellung... ?
Tage:      1T, 2T, 3T, 5T -1T -2T -3T -5T +1T +2T +3T +5T
Wochen: 1W, 2W, 3W -1W -2W -3W +1W +2W +3W
Monate: 1M, 3M, 6M -1M -3M -6M +1M +3M +6M
Jahre:    1J, 3J, 5J, 10J -1J -3J -5J -10J +1J +3J +5J +10J
Nutze für die Darstellung ... ?
Originaldaten oder Mittelwerte auf ...
Stundenbasis Tagesbasis Wochenbasis
Monatsbasis Jahresbasis      Datenbasis: Original-Daten
Darstellen als:
Statistik (Auto) Statistik J:M      Darstellung:

Der gewünschte Datumsbereich war nicht gültig/verfügbar und wurde korrigiert....
Das angegebene Enddatum (15.02.2029 23:59:59) liegt in der Zukunft.
Das angegebene Startdatum (16.08.2028 00:00:00) liegt in der Zukunft.


Zur Graphik,    zurück zur Übersicht aller Sensoren.
 
Tabellarische Datenbersicht: ?
 
Sensor: Nr:Datum:Temp:Feuchte:Taupunkt:
Aussen-T/F 1 15-04-2021 02:00:00 0.2 C 92 % -0.94 C
2 15-04-2021 02:05:00 0.1 C 92 % -1.04 C
3 15-04-2021 02:10:00 0 C 92 % -1.14 C
4 15-04-2021 02:15:00 -0.1 C 92 % -1.24 C
5 15-04-2021 02:20:00 -0.1 C 92 % -1.24 C
6 15-04-2021 02:25:00 -0.2 C 93 % -1.19 C
7 15-04-2021 02:30:00 -0.2 C 93 % -1.19 C
8 15-04-2021 02:35:00 -0.3 C 93 % -1.29 C
9 15-04-2021 02:40:00 -0.3 C 93 % -1.29 C
10 15-04-2021 02:45:00 -0.3 C 93 % -1.29 C
11 15-04-2021 02:50:00 -0.3 C 93 % -1.29 C
12 15-04-2021 02:55:00 -0.3 C 93 % -1.29 C
13 15-04-2021 03:00:00 -0.3 C 93 % -1.29 C
14 15-04-2021 03:05:00 -0.3 C 93 % -1.29 C
15 15-04-2021 03:10:00 -0.3 C 93 % -1.29 C
16 15-04-2021 03:15:00 -0.3 C 94 % -1.15 C
17 15-04-2021 03:20:00 -0.4 C 94 % -1.25 C
18 15-04-2021 03:25:00 -0.4 C 94 % -1.25 C
19 15-04-2021 03:30:00 -0.5 C 93 % -1.49 C
20 15-04-2021 03:35:00 -0.6 C 93 % -1.59 C
21 15-04-2021 03:40:00 -0.6 C 94 % -1.44 C
22 15-04-2021 03:45:00 -0.6 C 94 % -1.44 C
23 15-04-2021 03:50:00 -0.6 C 94 % -1.44 C
24 15-04-2021 03:55:00 -0.7 C 94 % -1.54 C
25 15-04-2021 04:00:00 -0.7 C 94 % -1.54 C
Sensor: Nr:Datum:Temp:Feuchte:Taupunkt:
Aussen-T/F 26 15-04-2021 04:05:00 -0.8 C 94 % -1.64 C
27 15-04-2021 04:10:00 -0.8 C 94 % -1.64 C
28 15-04-2021 04:15:00 -0.9 C 94 % -1.74 C
29 15-04-2021 04:20:00 -0.9 C 94 % -1.74 C
30 15-04-2021 04:25:00 -0.9 C 94 % -1.74 C
31 15-04-2021 04:30:00 -0.9 C 94 % -1.74 C
32 15-04-2021 04:35:00 -0.9 C 94 % -1.74 C
33 15-04-2021 04:40:00 -0.9 C 94 % -1.74 C
34 15-04-2021 04:45:00 -0.9 C 94 % -1.74 C
35 15-04-2021 04:50:00 -0.9 C 94 % -1.74 C
36 15-04-2021 04:55:00 -0.9 C 94 % -1.74 C
37 15-04-2021 05:00:00 -0.8 C 94 % -1.64 C
38 15-04-2021 05:05:00 -0.8 C 94 % -1.64 C
39 15-04-2021 05:10:00 -0.7 C 95 % -1.4 C
40 15-04-2021 05:15:00 -0.6 C 95 % -1.3 C
41 15-04-2021 05:20:00 -0.6 C 95 % -1.3 C
42 15-04-2021 05:25:00 -0.7 C 95 % -1.4 C
43 15-04-2021 05:30:00 -0.7 C 95 % -1.4 C
44 15-04-2021 05:35:00 -0.8 C 94 % -1.64 C
45 15-04-2021 05:40:00 -0.8 C 94 % -1.64 C
46 15-04-2021 05:45:00 -0.8 C 94 % -1.64 C
47 15-04-2021 05:50:00 -0.8 C 94 % -1.64 C
48 15-04-2021 05:55:00 -0.9 C 94 % -1.74 C
49 15-04-2021 06:00:00 -0.9 C 94 % -1.74 C
50 15-04-2021 06:05:00 -0.9 C 95 % -1.6 C
Sensor: Nr:Datum:Temp:Feuchte:Taupunkt:
Aussen-T/F 51 15-04-2021 06:10:00 -1 C 95 % -1.7 C
52 15-04-2021 06:15:00 -1.1 C 95 % -1.8 C
53 15-04-2021 06:20:00 -1.1 C 95 % -1.8 C
54 15-04-2021 06:25:00 -1.1 C 95 % -1.8 C
55 15-04-2021 06:30:00 -1.1 C 95 % -1.8 C
56 15-04-2021 06:35:00 -1.1 C 95 % -1.8 C
57 15-04-2021 06:40:00 -1.2 C 95 % -1.9 C
58 15-04-2021 06:45:00 -1.2 C 95 % -1.9 C
59 15-04-2021 06:50:00 -1.2 C 95 % -1.9 C
60 15-04-2021 06:55:00 -1.3 C 95 % -2 C
61 15-04-2021 07:00:00 -1.3 C 95 % -2 C
62 15-04-2021 07:05:00 -1.3 C 95 % -2 C
63 15-04-2021 07:10:00 -1.2 C 95 % -1.9 C
64 15-04-2021 07:15:00 -1.2 C 95 % -1.9 C
65 15-04-2021 07:20:00 -1.1 C 95 % -1.8 C
66 15-04-2021 07:25:00 -1.1 C 95 % -1.8 C
67 15-04-2021 07:30:00 -1.1 C 95 % -1.8 C
68 15-04-2021 07:35:00 -1 C 95 % -1.7 C
69 15-04-2021 07:40:00 -1 C 95 % -1.7 C
70 15-04-2021 07:45:00 -1 C 95 % -1.7 C
71 15-04-2021 07:50:00 -0.9 C 95 % -1.6 C
72 15-04-2021 07:55:00 -0.9 C 95 % -1.6 C
73 15-04-2021 08:00:00 -0.9 C 95 % -1.6 C
74 15-04-2021 08:05:00 -0.9 C 95 % -1.6 C
75 15-04-2021 08:10:00 -0.8 C 95 % -1.5 C
Sensor: Nr:Datum:Temp:Feuchte:Taupunkt:
Aussen-T/F 76 15-04-2021 08:15:00 -0.8 C 95 % -1.5 C
77 15-04-2021 08:20:00 -0.7 C 95 % -1.4 C
78 15-04-2021 08:25:00 -0.7 C 95 % -1.4 C
79 15-04-2021 08:30:00 -0.6 C 95 % -1.3 C
80 15-04-2021 08:35:00 -0.6 C 95 % -1.3 C
81 15-04-2021 08:40:00 -0.5 C 95 % -1.2 C
82 15-04-2021 08:45:00 -0.4 C 95 % -1.1 C
83 15-04-2021 08:50:00 -0.3 C 95 % -1 C
84 15-04-2021 08:55:00 -0.3 C 95 % -1 C
85 15-04-2021 09:00:00 -0.2 C 95 % -0.9 C
86 15-04-2021 09:05:00 -0.2 C 95 % -0.9 C
87 15-04-2021 09:10:00 -0.1 C 95 % -0.8 C
88 15-04-2021 09:15:00 0.1 C 96 % -0.46 C
89 15-04-2021 09:20:00 0.2 C 96 % -0.36 C
90 15-04-2021 09:25:00 0.4 C 96 % -0.16 C
91 15-04-2021 09:30:00 0.6 C 96 % 0.04 C
92 15-04-2021 09:35:00 0.7 C 96 % 0.14 C
93 15-04-2021 09:40:00 0.8 C 96 % 0.24 C
94 15-04-2021 09:45:00 0.9 C 96 % 0.34 C
95 15-04-2021 09:50:00 1.1 C 96 % 0.54 C
96 15-04-2021 09:55:00 1.2 C 96 % 0.63 C
97 15-04-2021 10:00:00 1.3 C 96 % 0.73 C
98 15-04-2021 10:05:00 1.5 C 96 % 0.93 C
99 15-04-2021 10:10:00 1.7 C 96 % 1.13 C
100 15-04-2021 10:15:00 1.8 C 96 % 1.23 C
Sensor: Nr:Datum:Temp:Feuchte:Taupunkt:
Aussen-T/F 101 15-04-2021 10:20:00 2.1 C 96 % 1.53 C

Legende:
   Min
   Max


Maximal/Minimal-Werte vom 15.04.2021 - 16.04.2021

Sensor Min Max Avg
Temp
(Aussen-T/F)
-1.3 °C
15-04-2021  06:55:00
2.1 °C
15-04-2021  10:20:00
-0.46 °C
Feuchte
(Aussen-T/F)
92 %
15-04-2021  02:00:00
96 %
15-04-2021  09:15:00
94.49 %
Taupunkt
(Aussen-T/F)
-2 C
15-04-2021  06:55:00
1.53 C
15-04-2021  10:20:00
-1.23 C

Die Daten stammen von einer Davis Vantage Pro 2 Wetter-Station und werden unter Linux mit der Software wview2wettercgi und aufbereitet. Alle Angaben erfolgen ohne Gewähr für ihre Vollständigkeit oder Richtigkeit.
Kontakt: Rainer Krienke krienke@uni-koblenz.de . Meine Webseiten an der Uni Koblenz oder privat.
Version: $Revision: 0.78 $